sensor_id;sensor_type;location;lat;lon;timestamp;pressure;altitude;pressure_sealevel;temperature;humidity
60583;BME280;46415;47.536;19.066;2023-02-18T00:02:35;100667.63;;;13.06;84.23
60583;BME280;46415;47.536;19.066;2023-02-18T00:05:38;100659.47;;;13.14;84.08
60583;BME280;46415;47.536;19.066;2023-02-18T00:08:41;100660.06;;;13.19;84.16
60583;BME280;46415;47.536;19.066;2023-02-18T00:11:44;100654.31;;;13.29;83.79
60583;BME280;46415;47.536;19.066;2023-02-18T00:14:47;100662.69;;;13.36;83.41
60583;BME280;46415;47.536;19.066;2023-02-18T00:17:50;100661.41;;;13.27;83.81
60583;BME280;46415;47.536;19.066;2023-02-18T00:20:53;100646.38;;;13.32;83.74
60583;BME280;46415;47.536;19.066;2023-02-18T00:23:56;100666.91;;;13.38;83.51
60583;BME280;46415;47.536;19.066;2023-02-18T00:26:58;100630.78;;;13.31;83.83
60583;BME280;46415;47.536;19.066;2023-02-18T00:30:02;100632.25;;;13.36;83.60
60583;BME280;46415;47.536;19.066;2023-02-18T00:33:08;100635.78;;;13.35;83.72
60583;BME280;46415;47.536;19.066;2023-02-18T00:36:14;100625.12;;;13.23;84.61
60583;BME280;46415;47.536;19.066;2023-02-18T00:39:18;100632.78;;;13.26;84.51
60583;BME280;46415;47.536;19.066;2023-02-18T00:42:21;100629.59;;;13.21;84.82
60583;BME280;46415;47.536;19.066;2023-02-18T00:45:23;100644.06;;;13.26;84.63
60583;BME280;46415;47.536;19.066;2023-02-18T00:48:27;100631.09;;;13.25;84.73
60583;BME280;46415;47.536;19.066;2023-02-18T00:51:30;100625.59;;;13.31;84.36
60583;BME280;46415;47.536;19.066;2023-02-18T00:54:33;100639.16;;;13.37;83.93
60583;BME280;46415;47.536;19.066;2023-02-18T00:57:35;100649.44;;;13.40;83.94
60583;BME280;46415;47.536;19.066;2023-02-18T01:00:38;100637.06;;;13.44;83.62
60583;BME280;46415;47.536;19.066;2023-02-18T01:03:41;100629.94;;;13.47;83.38
60583;BME280;46415;47.536;19.066;2023-02-18T01:06:44;100622.22;;;13.46;83.47
60583;BME280;46415;47.536;19.066;2023-02-18T01:09:47;100616.28;;;13.42;83.62
60583;BME280;46415;47.536;19.066;2023-02-18T01:12:50;100615.97;;;13.48;83.22
60583;BME280;46415;47.536;19.066;2023-02-18T01:15:53;100611.16;;;13.58;82.46
60583;BME280;46415;47.536;19.066;2023-02-18T01:19:04;100606.75;;;13.59;82.29
60583;BME280;46415;47.536;19.066;2023-02-18T01:22:06;100625.44;;;13.67;81.66
60583;BME280;46415;47.536;19.066;2023-02-18T01:25:10;100617.38;;;13.71;81.34
60583;BME280;46415;47.536;19.066;2023-02-18T01:28:15;100602.91;;;13.66;81.53
60583;BME280;46415;47.536;19.066;2023-02-18T01:31:18;100611.75;;;13.63;81.72
60583;BME280;46415;47.536;19.066;2023-02-18T01:34:21;100613.84;;;13.72;81.05
60583;BME280;46415;47.536;19.066;2023-02-18T01:37:25;100604.59;;;13.82;80.27
60583;BME280;46415;47.536;19.066;2023-02-18T01:40:29;100609.00;;;13.82;80.23
60583;BME280;46415;47.536;19.066;2023-02-18T01:43:32;100606.53;;;13.79;80.21
60583;BME280;46415;47.536;19.066;2023-02-18T01:46:36;100594.94;;;13.84;79.93
60583;BME280;46415;47.536;19.066;2023-02-18T01:49:40;100636.28;;;13.92;79.48
60583;BME280;46415;47.536;19.066;2023-02-18T01:52:43;100610.19;;;13.92;79.36
60583;BME280;46415;47.536;19.066;2023-02-18T01:55:47;100601.25;;;13.96;78.95
60583;BME280;46415;47.536;19.066;2023-02-18T01:58:52;100609.78;;;14.00;78.77
60583;BME280;46415;47.536;19.066;2023-02-18T02:01:57;100604.47;;;14.01;78.59
60583;BME280;46415;47.536;19.066;2023-02-18T02:05:00;100605.75;;;13.94;78.86
60583;BME280;46415;47.536;19.066;2023-02-18T02:08:03;100604.25;;;14.06;77.85
60583;BME280;46415;47.536;19.066;2023-02-18T02:24:59;100595.06;;;13.99;77.68
60583;BME280;46415;47.536;19.066;2023-02-18T02:38:24;100575.09;;;13.98;77.34
60583;BME280;46415;47.536;19.066;2023-02-18T02:41:34;100587.81;;;14.19;75.93
60583;BME280;46415;47.536;19.066;2023-02-18T02:52:16;100602.38;;;14.08;76.48
60583;BME280;46415;47.536;19.066;2023-02-18T02:55:17;100599.03;;;14.06;76.48
60583;BME280;46415;47.536;19.066;2023-02-18T02:58:24;100602.78;;;14.00;76.75
60583;BME280;46415;47.536;19.066;2023-02-18T03:11:18;100613.84;;;14.05;76.40
60583;BME280;46415;47.536;19.066;2023-02-18T03:14:27;100625.84;;;14.08;76.28
60583;BME280;46415;47.536;19.066;2023-02-18T03:17:36;100623.56;;;14.02;76.50
60583;BME280;46415;47.536;19.066;2023-02-18T03:20:59;100613.66;;;14.08;76.24
60583;BME280;46415;47.536;19.066;2023-02-18T03:24:28;100621.66;;;14.05;76.38
60583;BME280;46415;47.536;19.066;2023-02-18T03:27:35;100594.94;;;14.00;76.56
60583;BME280;46415;47.536;19.066;2023-02-18T03:30:53;100633.28;;;14.00;76.61
60583;BME280;46415;47.536;19.066;2023-02-18T03:34:12;100620.91;;;14.03;76.40
60583;BME280;46415;47.536;19.066;2023-02-18T03:37:17;100615.75;;;14.02;76.26
60583;BME280;46415;47.536;19.066;2023-02-18T03:40:23;100610.00;;;13.95;76.72
60583;BME280;46415;47.536;19.066;2023-02-18T03:43:26;100617.78;;;13.97;76.64
60583;BME280;46415;47.536;19.066;2023-02-18T03:46:29;100618.69;;;13.96;76.50
60583;BME280;46415;47.536;19.066;2023-02-18T03:49:32;100609.34;;;13.92;76.66
60583;BME280;46415;47.536;19.066;2023-02-18T03:52:35;100614.03;;;13.85;77.09
60583;BME280;46415;47.536;19.066;2023-02-18T03:55:39;100634.06;;;13.84;77.31
60583;BME280;46415;47.536;19.066;2023-02-18T03:58:42;100633.34;;;13.98;76.58
60583;BME280;46415;47.536;19.066;2023-02-18T04:01:45;100628.78;;;14.02;76.50
60583;BME280;46415;47.536;19.066;2023-02-18T04:04:48;100637.66;;;13.99;76.43
60583;BME280;46415;47.536;19.066;2023-02-18T04:07:50;100613.97;;;14.02;76.48
60583;BME280;46415;47.536;19.066;2023-02-18T04:10:55;100607.59;;;13.92;76.98
60583;BME280;46415;47.536;19.066;2023-02-18T04:13:57;100614.62;;;13.90;77.35
60583;BME280;46415;47.536;19.066;2023-02-18T04:17:00;100620.97;;;13.86;77.69
60583;BME280;46415;47.536;19.066;2023-02-18T04:20:04;100613.13;;;13.86;77.78
60583;BME280;46415;47.536;19.066;2023-02-18T04:23:07;100620.37;;;13.81;78.11
60583;BME280;46415;47.536;19.066;2023-02-18T04:26:09;100616.22;;;13.77;78.63
60583;BME280;46415;47.536;19.066;2023-02-18T04:29:13;100635.31;;;13.77;78.73
60583;BME280;46415;47.536;19.066;2023-02-18T04:32:15;100625.47;;;13.82;78.50
60583;BME280;46415;47.536;19.066;2023-02-18T04:35:18;100631.00;;;13.76;78.89
60583;BME280;46415;47.536;19.066;2023-02-18T04:38:21;100621.75;;;13.71;79.34
60583;BME280;46415;47.536;19.066;2023-02-18T04:41:24;100622.25;;;13.62;79.96
60583;BME280;46415;47.536;19.066;2023-02-18T04:44:27;100631.78;;;13.45;80.97
60583;BME280;46415;47.536;19.066;2023-02-18T04:47:30;100647.97;;;13.52;80.68
60583;BME280;46415;47.536;19.066;2023-02-18T04:50:33;100639.91;;;13.57;79.97
60583;BME280;46415;47.536;19.066;2023-02-18T04:53:36;100641.72;;;13.55;80.01
60583;BME280;46415;47.536;19.066;2023-02-18T04:56:38;100655.09;;;13.48;80.69
60583;BME280;46415;47.536;19.066;2023-02-18T04:59:41;100658.84;;;13.43;81.08
60583;BME280;46415;47.536;19.066;2023-02-18T05:02:45;100669.66;;;13.35;82.30
60583;BME280;46415;47.536;19.066;2023-02-18T05:05:48;100669.34;;;13.24;83.43
60583;BME280;46415;47.536;19.066;2023-02-18T05:08:50;100683.78;;;13.14;84.55
60583;BME280;46415;47.536;19.066;2023-02-18T05:11:53;100678.50;;;12.97;87.96
60583;BME280;46415;47.536;19.066;2023-02-18T05:14:56;100676.78;;;12.79;90.78
60583;BME280;46415;47.536;19.066;2023-02-18T05:17:59;100683.72;;;12.61;94.06
60583;BME280;46415;47.536;19.066;2023-02-18T05:21:02;100691.88;;;12.53;95.49
60583;BME280;46415;47.536;19.066;2023-02-18T05:24:05;100693.56;;;12.54;96.05
60583;BME280;46415;47.536;19.066;2023-02-18T05:27:08;100707.50;;;12.53;96.42
60583;BME280;46415;47.536;19.066;2023-02-18T05:30:11;100704.09;;;12.51;96.76
60583;BME280;46415;47.536;19.066;2023-02-18T05:33:14;100702.28;;;12.35;98.19
60583;BME280;46415;47.536;19.066;2023-02-18T05:36:17;100705.91;;;12.32;98.64
60583;BME280;46415;47.536;19.066;2023-02-18T05:39:19;100709.47;;;12.30;99.35
60583;BME280;46415;47.536;19.066;2023-02-18T05:42:22;100714.03;;;12.24;99.50
60583;BME280;46415;47.536;19.066;2023-02-18T05:45:25;100723.09;;;12.16;100.00
60583;BME280;46415;47.536;19.066;2023-02-18T05:48:28;100717.88;;;12.16;100.00
60583;BME280;46415;47.536;19.066;2023-02-18T05:51:31;100723.03;;;12.17;100.00
60583;BME280;46415;47.536;19.066;2023-02-18T05:54:35;100733.22;;;12.22;99.74
60583;BME280;46415;47.536;19.066;2023-02-18T05:57:38;100725.28;;;12.25;99.24
60583;BME280;46415;47.536;19.066;2023-02-18T06:00:41;100739.63;;;12.15;100.00
60583;BME280;46415;47.536;19.066;2023-02-18T06:03:44;100744.72;;;11.98;100.00
60583;BME280;46415;47.536;19.066;2023-02-18T06:06:47;100747.31;;;11.98;100.00
60583;BME280;46415;47.536;19.066;2023-02-18T06:09:50;100754.72;;;12.07;99.68
60583;BME280;46415;47.536;19.066;2023-02-18T06:12:52;100762.25;;;12.13;98.86
60583;BME280;46415;47.536;19.066;2023-02-18T06:15:55;100759.78;;;12.10;99.00
60583;BME280;46415;47.536;19.066;2023-02-18T06:18:58;100767.69;;;12.08;98.77
60583;BME280;46415;47.536;19.066;2023-02-18T06:22:01;100770.97;;;12.12;98.22
60583;BME280;46415;47.536;19.066;2023-02-18T06:25:04;100771.25;;;12.06;98.02
60583;BME280;46415;47.536;19.066;2023-02-18T06:28:08;100773.84;;;12.06;97.83
60583;BME280;46415;47.536;19.066;2023-02-18T06:31:10;100768.38;;;12.12;96.94
60583;BME280;46415;47.536;19.066;2023-02-18T06:34:13;100773.84;;;12.06;98.08
60583;BME280;46415;47.536;19.066;2023-02-18T06:37:16;100778.41;;;12.01;98.64
60583;BME280;46415;47.536;19.066;2023-02-18T06:40:19;100775.75;;;12.02;98.66
60583;BME280;46415;47.536;19.066;2023-02-18T06:43:21;100776.31;;;12.09;98.61
60583;BME280;46415;47.536;19.066;2023-02-18T06:46:24;100775.41;;;12.10;98.39
60583;BME280;46415;47.536;19.066;2023-02-18T06:49:27;100764.59;;;12.19;97.79
60583;BME280;46415;47.536;19.066;2023-02-18T06:52:30;100759.81;;;12.28;96.87
60583;BME280;46415;47.536;19.066;2023-02-18T06:55:35;100762.78;;;12.40;96.54
60583;BME280;46415;47.536;19.066;2023-02-18T06:58:38;100765.59;;;12.35;97.26
60583;BME280;46415;47.536;19.066;2023-02-18T07:01:40;100767.28;;;12.36;97.79
60583;BME280;46415;47.536;19.066;2023-02-18T07:04:43;100770.69;;;12.38;98.49
60583;BME280;46415;47.536;19.066;2023-02-18T07:07:47;100780.03;;;12.42;99.46
60583;BME280;46415;47.536;19.066;2023-02-18T07:10:50;100777.72;;;12.36;100.00
60583;BME280;46415;47.536;19.066;2023-02-18T07:13:53;100779.53;;;12.34;100.00
60583;BME280;46415;47.536;19.066;2023-02-18T07:16:56;100781.22;;;12.35;100.00
60583;BME280;46415;47.536;19.066;2023-02-18T07:19:59;100781.50;;;12.29;100.00
60583;BME280;46415;47.536;19.066;2023-02-18T07:23:02;100781.38;;;12.32;100.00
60583;BME280;46415;47.536;19.066;2023-02-18T07:26:11;100798.69;;;12.33;100.00
60583;BME280;46415;47.536;19.066;2023-02-18T07:29:14;100779.25;;;12.40;100.00
60583;BME280;46415;47.536;19.066;2023-02-18T07:32:17;100785.59;;;12.53;99.27
60583;BME280;46415;47.536;19.066;2023-02-18T07:35:21;100792.34;;;12.57;98.58
60583;BME280;46415;47.536;19.066;2023-02-18T07:38:24;100783.50;;;12.61;97.73
60583;BME280;46415;47.536;19.066;2023-02-18T07:41:28;100786.75;;;12.66;97.26
60583;BME280;46415;47.536;19.066;2023-02-18T07:44:34;100779.06;;;12.82;95.92
60583;BME280;46415;47.536;19.066;2023-02-18T07:47:38;100789.41;;;12.84;95.27
60583;BME280;46415;47.536;19.066;2023-02-18T07:50:43;100780.41;;;12.91;94.64
60583;BME280;46415;47.536;19.066;2023-02-18T07:53:46;100772.37;;;12.95;93.85
60583;BME280;46415;47.536;19.066;2023-02-18T07:56:49;100778.63;;;13.10;92.74
60583;BME280;46415;47.536;19.066;2023-02-18T07:59:52;100771.00;;;13.24;91.68
60583;BME280;46415;47.536;19.066;2023-02-18T08:02:55;100772.41;;;13.31;90.92
60583;BME280;46415;47.536;19.066;2023-02-18T08:06:00;100777.31;;;13.37;90.38
60583;BME280;46415;47.536;19.066;2023-02-18T08:09:03;100771.50;;;13.49;89.49
60583;BME280;46415;47.536;19.066;2023-02-18T08:12:07;100766.50;;;13.28;90.48
60583;BME280;46415;47.536;19.066;2023-02-18T08:15:09;100777.38;;;13.36;90.47
60583;BME280;46415;47.536;19.066;2023-02-18T08:18:18;100776.50;;;13.54;89.74
60583;BME280;46415;47.536;19.066;2023-02-18T08:21:23;100788.84;;;13.68;89.18
60583;BME280;46415;47.536;19.066;2023-02-18T08:24:26;100788.69;;;13.71;88.39
60583;BME280;46415;47.536;19.066;2023-02-18T08:27:29;100794.38;;;13.62;88.91
60583;BME280;46415;47.536;19.066;2023-02-18T08:30:32;100778.97;;;13.74;88.34
60583;BME280;46415;47.536;19.066;2023-02-18T08:33:34;100786.25;;;13.85;87.65
60583;BME280;46415;47.536;19.066;2023-02-18T08:36:37;100780.78;;;13.89;87.16
60583;BME280;46415;47.536;19.066;2023-02-18T08:39:40;100787.31;;;13.98;86.10
60583;BME280;46415;47.536;19.066;2023-02-18T08:42:43;100791.09;;;13.75;87.05
60583;BME280;46415;47.536;19.066;2023-02-18T08:45:46;100787.06;;;14.03;86.53
60583;BME280;46415;47.536;19.066;2023-02-18T08:48:50;100795.88;;;14.00;87.20
60583;BME280;46415;47.536;19.066;2023-02-18T08:51:52;100781.47;;;14.10;85.99
60583;BME280;46415;47.536;19.066;2023-02-18T08:54:55;100780.66;;;14.25;84.79
60583;BME280;46415;47.536;19.066;2023-02-18T08:57:59;100787.53;;;14.11;85.07
60583;BME280;46415;47.536;19.066;2023-02-18T09:01:04;100793.94;;;14.38;84.17
60583;BME280;46415;47.536;19.066;2023-02-18T09:04:08;100787.81;;;14.39;83.10
60583;BME280;46415;47.536;19.066;2023-02-18T09:07:11;100780.91;;;14.38;83.63
60583;BME280;46415;47.536;19.066;2023-02-18T09:10:13;100787.25;;;14.32;82.99
60583;BME280;46415;47.536;19.066;2023-02-18T09:13:17;100781.47;;;14.10;84.52
60583;BME280;46415;47.536;19.066;2023-02-18T09:16:19;100793.75;;;13.91;85.02
60583;BME280;46415;47.536;19.066;2023-02-18T09:19:23;100773.06;;;14.21;83.40
60583;BME280;46415;47.536;19.066;2023-02-18T09:22:26;100774.88;;;14.53;82.15
60583;BME280;46415;47.536;19.066;2023-02-18T09:25:29;100780.34;;;14.80;80.00
60583;BME280;46415;47.536;19.066;2023-02-18T09:28:33;100773.00;;;14.55;80.62
60583;BME280;46415;47.536;19.066;2023-02-18T09:31:36;100762.63;;;14.54;80.88
60583;BME280;46415;47.536;19.066;2023-02-18T09:34:40;100764.75;;;14.30;82.61
60583;BME280;46415;47.536;19.066;2023-02-18T09:37:48;100758.56;;;14.15;83.65
60583;BME280;46415;47.536;19.066;2023-02-18T09:40:52;100761.69;;;14.39;83.39
60583;BME280;46415;47.536;19.066;2023-02-18T09:44:00;100748.72;;;14.38;83.02
60583;BME280;46415;47.536;19.066;2023-02-18T09:47:17;100751.94;;;14.25;84.16
60583;BME280;46415;47.536;19.066;2023-02-18T09:50:29;100755.63;;;14.39;83.27
60583;BME280;46415;47.536;19.066;2023-02-18T09:53:33;100753.78;;;14.41;83.10
60583;BME280;46415;47.536;19.066;2023-02-18T09:56:37;100754.31;;;14.63;81.56
60583;BME280;46415;47.536;19.066;2023-02-18T09:59:42;100768.97;;;14.97;80.18
60583;BME280;46415;47.536;19.066;2023-02-18T10:02:54;100765.06;;;15.35;78.46
60583;BME280;46415;47.536;19.066;2023-02-18T10:06:02;100766.56;;;15.55;76.96
60583;BME280;46415;47.536;19.066;2023-02-18T10:09:18;100771.06;;;15.67;76.08
60583;BME280;46415;47.536;19.066;2023-02-18T10:12:24;100771.47;;;15.75;75.26
60583;BME280;46415;47.536;19.066;2023-02-18T10:15:29;100762.59;;;15.78;74.57
60583;BME280;46415;47.536;19.066;2023-02-18T10:18:40;100764.69;;;15.57;73.93
60583;BME280;46415;47.536;19.066;2023-02-18T10:21:43;100755.25;;;15.55;75.05
60583;BME280;46415;47.536;19.066;2023-02-18T10:24:49;100770.06;;;15.70;74.22
60583;BME280;46415;47.536;19.066;2023-02-18T10:27:53;100759.97;;;15.48;74.87
60583;BME280;46415;47.536;19.066;2023-02-18T10:31:01;100762.16;;;14.94;76.61
60583;BME280;46415;47.536;19.066;2023-02-18T10:37:40;100774.38;;;14.62;76.14
60583;BME280;46415;47.536;19.066;2023-02-18T10:40:59;100764.75;;;14.79;75.77
60583;BME280;46415;47.536;19.066;2023-02-18T10:47:59;100753.38;;;16.15;70.73
60583;BME280;46415;47.536;19.066;2023-02-18T10:51:20;100745.69;;;16.54;68.57
60583;BME280;46415;47.536;19.066;2023-02-18T10:54:25;100744.31;;;16.63;68.25
60583;BME280;46415;47.536;19.066;2023-02-18T10:57:28;100747.12;;;16.31;70.12
60583;BME280;46415;47.536;19.066;2023-02-18T11:00:38;100748.25;;;16.13;73.22
60583;BME280;46415;47.536;19.066;2023-02-18T11:03:44;100741.22;;;15.56;77.96
60583;BME280;46415;47.536;19.066;2023-02-18T11:06:50;100742.59;;;15.91;76.33
60583;BME280;46415;47.536;19.066;2023-02-18T11:09:58;100757.25;;;15.65;76.81
60583;BME280;46415;47.536;19.066;2023-02-18T11:13:05;100751.59;;;15.11;79.87
60583;BME280;46415;47.536;19.066;2023-02-18T11:16:10;100729.53;;;15.01;80.09
60583;BME280;46415;47.536;19.066;2023-02-18T11:19:36;100727.84;;;14.85;81.40
60583;BME280;46415;47.536;19.066;2023-02-18T11:22:40;100712.78;;;15.20;79.51
60583;BME280;46415;47.536;19.066;2023-02-18T11:25:54;100710.50;;;15.43;78.41
60583;BME280;46415;47.536;19.066;2023-02-18T11:29:17;100704.34;;;15.74;76.41
60583;BME280;46415;47.536;19.066;2023-02-18T11:32:26;100697.91;;;15.66;77.34
60583;BME280;46415;47.536;19.066;2023-02-18T11:35:31;100689.22;;;15.49;78.34
60583;BME280;46415;47.536;19.066;2023-02-18T11:38:37;100685.06;;;15.31;79.31
60583;BME280;46415;47.536;19.066;2023-02-18T11:41:47;100683.53;;;15.43;79.22
60583;BME280;46415;47.536;19.066;2023-02-18T11:44:56;100678.03;;;15.47;79.35
60583;BME280;46415;47.536;19.066;2023-02-18T11:48:05;100675.56;;;15.60;79.76
60583;BME280;46415;47.536;19.066;2023-02-18T11:51:34;100673.25;;;15.98;77.80
60583;BME280;46415;47.536;19.066;2023-02-18T11:54:40;100657.25;;;16.17;76.84
60583;BME280;46415;47.536;19.066;2023-02-18T11:57:47;100655.47;;;16.31;75.96
60583;BME280;46415;47.536;19.066;2023-02-18T12:00:56;100649.22;;;16.06;76.52
60583;BME280;46415;47.536;19.066;2023-02-18T12:10:27;100623.78;;;17.02;71.49
60583;BME280;46415;47.536;19.066;2023-02-18T12:13:40;100606.75;;;16.56;72.15
60583;BME280;46415;47.536;19.066;2023-02-18T12:23:55;100588.59;;;16.80;70.91
60583;BME280;46415;47.536;19.066;2023-02-18T12:30:55;100580.22;;;16.87;69.61
60583;BME280;46415;47.536;19.066;2023-02-18T12:37:41;100581.28;;;16.85;69.31
60583;BME280;46415;47.536;19.066;2023-02-18T12:47:04;100557.97;;;16.67;66.03
60583;BME280;46415;47.536;19.066;2023-02-18T12:50:27;100564.81;;;16.56;64.66
60583;BME280;46415;47.536;19.066;2023-02-18T12:53:37;100567.47;;;17.08;63.17
60583;BME280;46415;47.536;19.066;2023-02-18T12:56:58;100563.72;;;16.46;63.85
60583;BME280;46415;47.536;19.066;2023-02-18T13:07:19;100541.13;;;16.30;64.31
60583;BME280;46415;47.536;19.066;2023-02-18T13:10:47;100525.72;;;16.26;65.28
60583;BME280;46415;47.536;19.066;2023-02-18T13:14:15;100539.28;;;16.32;64.74
60583;BME280;46415;47.536;19.066;2023-02-18T13:17:21;100524.44;;;16.58;63.46
60583;BME280;46415;47.536;19.066;2023-02-18T13:20:41;100516.56;;;16.85;62.44
60583;BME280;46415;47.536;19.066;2023-02-18T13:23:57;100525.16;;;17.00;61.53
60583;BME280;46415;47.536;19.066;2023-02-18T13:30:43;100523.50;;;17.37;60.13
60583;BME280;46415;47.536;19.066;2023-02-18T13:34:46;100522.81;;;17.59;59.58
60583;BME280;46415;47.536;19.066;2023-02-18T13:41:16;100511.91;;;17.77;57.92
60583;BME280;46415;47.536;19.066;2023-02-18T13:50:41;100489.09;;;18.14;57.09
60583;BME280;46415;47.536;19.066;2023-02-18T13:53:50;100487.03;;;18.42;55.83
60583;BME280;46415;47.536;19.066;2023-02-18T13:56:58;100471.56;;;18.26;56.37
60583;BME280;46415;47.536;19.066;2023-02-18T14:00:05;100480.78;;;17.84;57.19
60583;BME280;46415;47.536;19.066;2023-02-18T14:07:22;100458.94;;;17.47;58.79
60583;BME280;46415;47.536;19.066;2023-02-18T14:10:32;100468.13;;;17.03;60.17
60583;BME280;46415;47.536;19.066;2023-02-18T14:23:58;100435.34;;;17.34;62.41
60583;BME280;46415;47.536;19.066;2023-02-18T14:27:08;100429.75;;;17.51;61.29
60583;BME280;46415;47.536;19.066;2023-02-18T14:30:24;100427.09;;;17.15;62.86
60583;BME280;46415;47.536;19.066;2023-02-18T14:33:31;100412.09;;;18.60;58.29
60583;BME280;46415;47.536;19.066;2023-02-18T14:36:45;100418.56;;;19.99;53.63
60583;BME280;46415;47.536;19.066;2023-02-18T14:50:00;100418.88;;;20.58;50.65
60583;BME280;46415;47.536;19.066;2023-02-18T14:53:07;100412.78;;;21.58;48.15
60583;BME280;46415;47.536;19.066;2023-02-18T14:56:17;100403.28;;;20.97;48.51
60583;BME280;46415;47.536;19.066;2023-02-18T14:59:22;100390.38;;;20.73;50.07
60583;BME280;46415;47.536;19.066;2023-02-18T15:02:28;100381.72;;;20.61;49.99
60583;BME280;46415;47.536;19.066;2023-02-18T15:05:36;100379.37;;;19.08;54.64
60583;BME280;46415;47.536;19.066;2023-02-18T15:08:39;100371.59;;;18.62;56.59
60583;BME280;46415;47.536;19.066;2023-02-18T15:11:51;100373.78;;;18.33;57.75
60583;BME280;46415;47.536;19.066;2023-02-18T15:15:01;100368.31;;;18.02;59.37
60583;BME280;46415;47.536;19.066;2023-02-18T15:18:04;100365.19;;;17.62;61.61
60583;BME280;46415;47.536;19.066;2023-02-18T15:21:32;100354.91;;;17.46;62.88
60583;BME280;46415;47.536;19.066;2023-02-18T15:24:36;100370.03;;;17.42;62.59
60583;BME280;46415;47.536;19.066;2023-02-18T15:27:43;100376.84;;;17.21;60.38
60583;BME280;46415;47.536;19.066;2023-02-18T15:30:47;100375.84;;;16.86;59.59
60583;BME280;46415;47.536;19.066;2023-02-18T15:33:51;100365.00;;;16.27;60.58
60583;BME280;46415;47.536;19.066;2023-02-18T15:36:54;100371.75;;;15.91;61.83
60583;BME280;46415;47.536;19.066;2023-02-18T15:39:58;100362.00;;;15.54;63.50
60583;BME280;46415;47.536;19.066;2023-02-18T15:43:03;100359.09;;;15.18;63.65
60583;BME280;46415;47.536;19.066;2023-02-18T15:46:11;100349.22;;;14.80;64.95
60583;BME280;46415;47.536;19.066;2023-02-18T15:49:19;100351.66;;;14.41;66.56
60583;BME280;46415;47.536;19.066;2023-02-18T15:52:32;100339.47;;;14.11;68.09
60583;BME280;46415;47.536;19.066;2023-02-18T15:55:41;100342.94;;;13.66;69.90
60583;BME280;46415;47.536;19.066;2023-02-18T15:58:44;100339.44;;;13.36;71.67
60583;BME280;46415;47.536;19.066;2023-02-18T16:02:18;100351.91;;;13.15;73.37
60583;BME280;46415;47.536;19.066;2023-02-18T16:05:27;100348.87;;;12.74;75.20
60583;BME280;46415;47.536;19.066;2023-02-18T16:08:30;100357.88;;;12.51;76.75
60583;BME280;46415;47.536;19.066;2023-02-18T16:11:36;100346.81;;;12.31;78.16
60583;BME280;46415;47.536;19.066;2023-02-18T16:14:47;100353.50;;;12.19;78.77
60583;BME280;46415;47.536;19.066;2023-02-18T16:17:51;100350.28;;;12.14;79.30
60583;BME280;46415;47.536;19.066;2023-02-18T16:21:45;100346.97;;;11.93;80.79
60583;BME280;46415;47.536;19.066;2023-02-18T16:24:29;100350.28;;;11.79;81.67
60583;BME280;46415;47.536;19.066;2023-02-18T16:27:37;100337.97;;;11.64;82.69
60583;BME280;46415;47.536;19.066;2023-02-18T16:30:47;100341.03;;;11.55;83.90
60583;BME280;46415;47.536;19.066;2023-02-18T16:33:51;100338.22;;;11.60;83.19
60583;BME280;46415;47.536;19.066;2023-02-18T16:36:54;100325.34;;;11.57;83.38
60583;BME280;46415;47.536;19.066;2023-02-18T16:40:23;100324.06;;;11.48;83.85
60583;BME280;46415;47.536;19.066;2023-02-18T16:43:27;100326.69;;;11.29;84.92
60583;BME280;46415;47.536;19.066;2023-02-18T16:46:34;100330.34;;;11.25;84.91
60583;BME280;46415;47.536;19.066;2023-02-18T16:49:40;100322.44;;;11.27;85.05
60583;BME280;46415;47.536;19.066;2023-02-18T16:52:44;100325.00;;;11.10;85.69
60583;BME280;46415;47.536;19.066;2023-02-18T16:55:48;100329.44;;;11.08;85.92
60583;BME280;46415;47.536;19.066;2023-02-18T16:58:52;100328.78;;;11.02;86.07
60583;BME280;46415;47.536;19.066;2023-02-18T17:01:55;100337.03;;;10.93;86.61
60583;BME280;46415;47.536;19.066;2023-02-18T17:04:57;100338.22;;;10.86;86.89
60583;BME280;46415;47.536;19.066;2023-02-18T17:08:20;100340.22;;;10.80;87.44
60583;BME280;46415;47.536;19.066;2023-02-18T17:11:28;100342.34;;;10.72;88.04
60583;BME280;46415;47.536;19.066;2023-02-18T17:14:31;100343.47;;;10.66;88.21
60583;BME280;46415;47.536;19.066;2023-02-18T17:17:35;100347.19;;;10.60;88.60
60583;BME280;46415;47.536;19.066;2023-02-18T17:20:38;100341.25;;;10.57;88.60
60583;BME280;46415;47.536;19.066;2023-02-18T17:23:41;100341.59;;;10.49;89.05
60583;BME280;46415;47.536;19.066;2023-02-18T17:26:44;100353.34;;;10.38;89.73
60583;BME280;46415;47.536;19.066;2023-02-18T17:29:47;100349.47;;;10.48;89.54
60583;BME280;46415;47.536;19.066;2023-02-18T17:32:50;100347.03;;;10.43;89.74
60583;BME280;46415;47.536;19.066;2023-02-18T17:35:53;100349.19;;;10.54;89.16
60583;BME280;46415;47.536;19.066;2023-02-18T17:38:57;100337.41;;;10.47;89.37
60583;BME280;46415;47.536;19.066;2023-02-18T17:42:04;100340.31;;;10.39;89.59
60583;BME280;46415;47.536;19.066;2023-02-18T17:45:34;100335.66;;;10.27;90.33
60583;BME280;46415;47.536;19.066;2023-02-18T17:48:38;100327.22;;;10.22;91.07
60583;BME280;46415;47.536;19.066;2023-02-18T17:51:42;100340.84;;;10.27;90.68
60583;BME280;46415;47.536;19.066;2023-02-18T17:54:44;100328.87;;;10.25;90.94
60583;BME280;46415;47.536;19.066;2023-02-18T17:57:48;100325.34;;;10.26;91.00
60583;BME280;46415;47.536;19.066;2023-02-18T18:00:54;100320.16;;;10.26;90.91
60583;BME280;46415;47.536;19.066;2023-02-18T18:03:58;100318.00;;;10.15;91.48